Porto Velho, Brazil
Current Conditions -  °F | °C
As of 6:00 PM on Wednesday 22 Oct 2014 (Local Time) from SBPV Reporting Station
Scattered Clouds Scattered Clouds  
Wind Chill: 79°   Ceiling: Unl
Heat Index: 82°   Visibility: 6mi
Dew Point: 72°   Wind: 5mph
Humidity: 78%   Direction: 90°E
Pressure: 29.77"   Gusts: NA
Location:  8.76°S, 63.91°W
Report Text: SBPV 222200Z 09004KT 9999 FEW020 FEW025TCU SCT100 26/22 Q1008
Loading
Personal Weather Stations






























Interactive Weather Map
Tropical Storm Tracking
New forecast layout! Learn more

10-Day Weather Forecast

Advertisements
Track Severe Weather on mobile